Time;durP1;ratioP1;P1;durP2;ratioP2;P2;SDS_P1;SDS_P2;PMS_P1;PMS_P2;Temp;Humidity;BMP_temperature;BMP_pressure;BME280_temperature;BME280_humidity;BME280_pressure;Samples;Min_cycle;Max_cycle;Signal;HPM_P1;HPM_P2
2022/12/22 03:28:06;;;;;;;;;;;;;;;;;;5107306;28;19912;-74
2022/12/22 03:30:53;;;;;;;;;;;;;;;;;;5118413;28;19918;-74
2022/12/22 03:33:39;;;;;;;;;;;;;;;;;;5116210;28;19912;-74
2022/12/22 03:36:26;;;;;;;;;;;;;;;;;;5101897;28;19908;-75
2022/12/22 03:39:12;;;;;;;;;;;;;;;;;;5103922;28;19919;-75
2022/12/22 03:48:09;;;;;;;;;;;;;;;;;;5100080;28;20383;-74
2022/12/22 03:50:56;;;;;;;;;;;;;;;;;;5101245;28;19912;-76
2022/12/22 03:53:42;;;;;;;;;;;;;;;;;;5118962;28;19907;-75
2022/12/22 03:56:29;;;;;;;;;;;;;;;;;;5119188;28;19919;-76
2022/12/22 03:59:15;;;;;;;;;;;;;;;;;;5112921;28;19916;-75
2022/12/22 04:02:02;;;;;;;;;;;;;;;;;;5114303;28;19915;-76
2022/12/22 04:04:48;;;;;;;;;;;;;;;;;;5132442;27;19915;-74
2022/12/22 04:07:35;;;;;;;;;;;;;;;;;;5127652;28;19915;-75
2022/12/22 04:13:26;;;;;;;;;;;;;;;;;;5125862;28;19895;-74
2022/12/22 04:16:13;;;;;;;;;;;;;;;;;;5129101;27;19911;-75
2022/12/22 04:18:59;;;;;;;;;;;;;;;;;;5116933;28;19916;-75
2022/12/22 04:21:46;;;;;;;;;;;;;;;;;;5082423;28;19932;-76
2022/12/22 04:24:32;;;;;;;;;;;;;;;;;;5100836;28;19980;-74
2022/12/22 04:27:19;;;;;;;;;;;;;;;;;;5082053;28;20727;-75
2022/12/22 04:30:06;;;;;;;;;;;;;;;;;;5080116;28;19923;-75
2022/12/22 04:32:52;;;;;;;;;;;;;;;;;;5079509;28;20347;-75
2022/12/22 04:35:39;;;;;;;;;;;;;;;;;;5080823;28;20653;-77
2022/12/22 04:38:25;;;;;;;;;;;;;;;;;;5085657;28;19958;-75
2022/12/22 04:41:12;;;;;;;;;;;;;;;;;;5080607;28;20291;-75
2022/12/22 04:43:58;;;;;;;;;;;;;;;;;;5085586;28;19916;-75
2022/12/22 04:46:45;;;;;;;;;;;;;;;;;;5069614;28;19920;-76
2022/12/22 04:49:32;;;;;;;;;;;;;;;;;;5090469;28;19908;-75
2022/12/22 04:52:18;;;;;;;;;;;;;;;;;;5058401;28;19909;-74
2022/12/22 04:55:05;;;;;;;;;;;;;;;;;;5072596;28;19924;-77
2022/12/22 04:57:51;;;;;;;;;;;;;;;;;;5077355;28;20560;-75
2022/12/22 05:00:38;;;;;;;;;;;;;;;;;;5073004;28;19916;-75
2022/12/22 05:03:24;;;;;;;;;;;;;;;;;;5070294;28;19923;-75
2022/12/22 05:06:11;;;;;;;;;;;;;;;;;;5078916;28;19916;-75
2022/12/22 05:08:57;;;;;;;;;;;;;;;;;;5072323;28;19923;-75
2022/12/22 05:11:44;;;;;;;;;;;;;;;;;;5053797;28;19920;-76
2022/12/22 05:14:30;;;;;;;;;;;;;;;;;;5066939;28;19908;-76
2022/12/22 05:17:17;;;;;;;;;;;;;;;;;;5077579;28;19919;-75
2022/12/22 05:20:03;;;;;;;;;;;;;;;;;;5084736;28;20653;-74
2022/12/22 05:22:50;;;;;;;;;;;;;;;;;;5095300;27;19920;-74
2022/12/22 05:25:36;;;;;;;;;;;;;;;;;;5107313;27;19911;-75
2022/12/22 05:28:23;;;;;;;;;;;;;;;;;;5096741;28;19912;-75
2022/12/22 05:31:10;;;;;;;;;;;;;;;;;;5102913;28;19935;-75
2022/12/22 05:33:56;;;;;;;;;;;;;;;;;;5110562;28;19919;-75
2022/12/22 05:36:43;;;;;;;;;;;;;;;;;;5080314;27;20011;-75
2022/12/22 05:39:29;;;;;;;;;;;;;;;;;;5107082;28;19942;-75
2022/12/22 05:42:34;;;;;;;;;;;;;;;;;;5091031;28;19919;-76
2022/12/22 05:45:20;;;;;;;;;;;;;;;;;;5109740;27;20496;-76
2022/12/22 05:48:07;;;;;;;;;;;;;;;;;;5096718;28;19919;-74
2022/12/22 05:50:53;;;;;;;;;;;;;;;;;;5108717;28;19908;-74
2022/12/22 05:53:40;;;;;;;;;;;;;;;;;;5084558;27;20844;-75
2022/12/22 05:56:26;;;;;;;;;;;;;;;;;;5104941;27;19912;-74
2022/12/22 05:59:13;;;;;;;;;;;;;;;;;;5099795;27;19915;-75
2022/12/22 06:01:59;;;;;;;;;;;;;;;;;;5098547;28;19927;-76
2022/12/22 06:04:46;;;;;;;;;;;;;;;;;;5096312;28;20413;-74
2022/12/22 06:07:32;;;;;;;;;;;;;;;;;;5105270;28;19908;-76
2022/12/22 06:10:19;;;;;;;;;;;;;;;;;;5108336;28;19937;-75
2022/12/22 06:13:05;;;;;;;;;;;;;;;;;;5091645;28;20535;-75
2022/12/22 06:15:52;;;;;;;;;;;;;;;;;;5100186;28;20351;-75
2022/12/22 06:18:38;;;;;;;;;;;;;;;;;;5105945;28;19931;-76
2022/12/22 06:21:25;;;;;;;;;;;;;;;;;;5096006;27;19919;-74
2022/12/22 06:24:11;;;;;;;;;;;;;;;;;;5104711;27;19915;-74
2022/12/22 06:26:57;;;;;;;;;;;;;;;;;;5107503;27;19935;-74
2022/12/22 06:29:44;;;;;;;;;;;;;;;;;;5095655;28;19913;-74
2022/12/22 06:32:31;;;;;;;;;;;;;;;;;;5090138;28;19919;-74
2022/12/22 06:35:17;;;;;;;;;;;;;;;;;;5094297;28;20340;-74
2022/12/22 06:38:04;;;;;;;;;;;;;;;;;;5099430;28;19919;-77
2022/12/22 06:40:50;;;;;;;;;;;;;;;;;;5096831;28;19919;-76
2022/12/22 06:43:37;;;;;;;;;;;;;;;;;;5092392;27;19912;-74
2022/12/22 06:46:23;;;;;;;;;;;;;;;;;;5099650;28;19918;-75
2022/12/22 06:49:10;;;;;;;;;;;;;;;;;;5090716;28;20359;-76
2022/12/22 06:51:56;;;;;;;;;;;;;;;;;;5097859;28;19916;-76
2022/12/22 06:54:43;;;;;;;;;;;;;;;;;;5081567;28;19931;-75
2022/12/22 06:57:29;;;;;;;;;;;;;;;;;;5094767;28;19923;-73
2022/12/22 07:00:16;;;;;;;;;;;;;;;;;;5093524;28;19912;-76
2022/12/22 07:03:02;;;;;;;;;;;;;;;;;;5075254;28;19920;-75
2022/12/22 07:05:48;;;;;;;;;;;;;;;;;;5098589;28;19926;-76
2022/12/22 07:08:35;;;;;;;;;;;;;;;;;;5090360;28;19912;-75
2022/12/22 07:11:21;;;;;;;;;;;;;;;;;;5099931;28;20550;-74
2022/12/22 07:14:08;;;;;;;;;;;;;;;;;;5106564;28;19919;-75
2022/12/22 07:16:55;;;;;;;;;;;;;;;;;;5094598;28;19991;-74
2022/12/22 07:19:41;;;;;;;;;;;;;;;;;;5103877;28;20319;-75
2022/12/22 07:22:27;;;;;;;;;;;;;;;;;;5095274;28;19920;-75
2022/12/22 07:25:14;;;;;;;;;;;;;;;;;;5089131;28;19919;-75
2022/12/22 07:28:00;;;;;;;;;;;;;;;;;;5093515;28;19912;-76
2022/12/22 07:30:47;;;;;;;;;;;;;;;;;;5098597;28;19914;-74
2022/12/22 07:33:33;;;;;;;;;;;;;;;;;;5103032;28;19931;-75
2022/12/22 07:36:20;;;;;;;;;;;;;;;;;;5081469;28;19918;-75
2022/12/22 07:39:06;;;;;;;;;;;;;;;;;;5089055;28;19912;-76
2022/12/22 07:44:58;;;;;;;;;;;;;;;;;;5093101;28;19927;-74
2022/12/22 07:47:45;;;;;;;;;;;;;;;;;;5100811;28;19912;-76
2022/12/22 07:50:31;;;;;;;;;;;;;;;;;;5087682;27;19915;-77
2022/12/22 07:53:18;;;;;;;;;;;;;;;;;;5101988;27;20389;-78
2022/12/22 07:56:04;;;;;;;;;;;;;;;;;;5093900;28;19916;-78
2022/12/22 07:58:51;;;;;;;;;;;;;;;;;;5098164;28;19908;-78
2022/12/22 08:01:38;;;;;;;;;;;;;;;;;;5106939;28;19926;-78
2022/12/22 08:04:25;;;;;;;;;;;;;;;;;;5097645;28;19912;-78
2022/12/22 08:07:11;;;;;;;;;;;;;;;;;;5113109;27;19922;-78
2022/12/22 08:09:58;;;;;;;;;;;;;;;;;;5104349;27;19916;-78
2022/12/22 08:12:44;;;;;;;;;;;;;;;;;;5102911;28;19911;-79
2022/12/22 08:15:31;;;;;;;;;;;;;;;;;;5092588;27;20388;-80
2022/12/22 08:18:25;;;;;;;;;;;;;;;;;;5112602;27;19900;-81
2022/12/22 08:21:11;;;;;;;;;;;;;;;;;;5109683;27;19923;-80
2022/12/22 08:23:58;;;;;;;;;;;;;;;;;;5097311;28;19916;-80
2022/12/22 08:26:44;;;;;;;;;;;;;;;;;;5103084;27;19912;-80
2022/12/22 08:29:30;;;;;;;;;;;;;;;;;;5093926;28;19908;-80
2022/12/22 08:32:17;;;;;;;;;;;;;;;;;;5106339;28;19912;-82
2022/12/22 08:35:03;;;;;;;;;;;;;;;;;;5102805;28;19914;-80
2022/12/22 08:37:50;;;;;;;;;;;;;;;;;;5103243;28;19912;-80
2022/12/22 08:40:36;;;;;;;;;;;;;;;;;;5103035;27;19935;-80
2022/12/22 08:43:23;;;;;;;;;;;;;;;;;;5099458;28;19931;-81
2022/12/22 08:46:10;;;;;;;;;;;;;;;;;;5097865;27;19918;-80
2022/12/22 08:48:56;;;;;;;;;;;;;;;;;;5098729;28;19965;-80
2022/12/22 08:51:43;;;;;;;;;;;;;;;;;;5097630;28;19924;-81
2022/12/22 08:54:29;;;;;;;;;;;;;;;;;;5092725;28;19912;-79
2022/12/22 08:57:16;;;;;;;;;;;;;;;;;;5103726;28;20386;-81
2022/12/22 09:00:02;;;;;;;;;;;;;;;;;;5098996;27;19915;-81
2022/12/22 09:02:49;;;;;;;;;;;;;;;;;;5095667;28;20374;-80
2022/12/22 09:05:37;;;;;;;;;;;;;;;;;;5100428;27;20030;-81
2022/12/22 09:08:23;;;;;;;;;;;;;;;;;;5102142;27;19915;-80
2022/12/22 09:11:10;;;;;;;;;;;;;;;;;;5094213;27;19912;-81
2022/12/22 09:13:56;;;;;;;;;;;;;;;;;;5101716;28;19912;-81
2022/12/22 09:16:43;;;;;;;;;;;;;;;;;;5087536;28;19918;-81
2022/12/22 09:19:29;;;;;;;;;;;;;;;;;;5090010;28;19923;-80
2022/12/22 09:22:16;;;;;;;;;;;;;;;;;;5098257;28;19916;-81
2022/12/22 09:25:02;;;;;;;;;;;;;;;;;;5101011;28;19912;-79
2022/12/22 09:27:49;;;;;;;;;;;;;;;;;;5101639;27;19946;-80
2022/12/22 09:30:36;;;;;;;;;;;;;;;;;;5109403;28;19914;-81
2022/12/22 09:33:25;;;;;;;;;;;;;;;;;;5102344;28;19915;-79
2022/12/22 09:36:11;;;;;;;;;;;;;;;;;;5107801;27;19919;-81
2022/12/22 09:38:58;;;;;;;;;;;;;;;;;;5106197;27;19912;-78
2022/12/22 09:41:44;;;;;;;;;;;;;;;;;;5102535;27;19981;-80
2022/12/22 09:44:31;;;;;;;;;;;;;;;;;;5108877;28;19912;-80
2022/12/22 09:47:17;;;;;;;;;;;;;;;;;;5087358;28;19908;-80
2022/12/22 09:50:04;;;;;;;;;;;;;;;;;;5109347;28;20485;-81
2022/12/22 09:52:50;;;;;;;;;;;;;;;;;;5092523;27;19912;-80
2022/12/22 09:55:37;;;;;;;;;;;;;;;;;;5093011;27;19918;-79
2022/12/22 09:58:23;;;;;;;;;;;;;;;;;;5089732;28;19916;-80
2022/12/22 10:01:10;;;;;;;;;;;;;;;;;;5088575;28;19912;-81
2022/12/22 10:03:57;;;;;;;;;;;;;;;;;;5075789;28;20387;-80
2022/12/22 10:06:43;;;;;;;;;;;;;;;;;;5106327;28;19922;-80
2022/12/22 10:09:30;;;;;;;;;;;;;;;;;;5104054;28;19971;-81
2022/12/22 10:12:16;;;;;;;;;;;;;;;;;;5094968;28;19919;-78
2022/12/22 10:15:03;;;;;;;;;;;;;;;;;;5090345;27;19954;-81
2022/12/22 10:17:49;;;;;;;;;;;;;;;;;;5084481;28;19920;-80
2022/12/22 10:20:38;;;;;;;;;;;;;;;;;;5095710;28;19923;-81
2022/12/22 10:23:24;;;;;;;;;;;;;;;;;;5099854;27;19946;-80
2022/12/22 10:26:11;;;;;;;;;;;;;;;;;;5101271;28;20291;-80
2022/12/22 10:28:57;;;;;;;;;;;;;;;;;;5094773;28;19924;-80
2022/12/22 10:31:44;;;;;;;;;;;;;;;;;;5098931;27;19922;-80
2022/12/22 10:34:30;;;;;;;;;;;;;;;;;;5101530;28;20438;-80
2022/12/22 10:37:17;;;;;;;;;;;;;;;;;;5097795;28;19912;-78
2022/12/22 10:40:03;;;;;;;;;;;;;;;;;;5097601;28;20378;-82
2022/12/22 10:42:50;;;;;;;;;;;;;;;;;;5097540;28;19924;-80
2022/12/22 10:45:36;;;;;;;;;;;;;;;;;;5097230;28;19949;-81
2022/12/22 10:48:23;;;;;;;;;;;;;;;;;;5103410;27;19919;-80
2022/12/22 10:51:10;;;;;;;;;;;;;;;;;;5098724;28;19919;-81
2022/12/22 10:53:56;;;;;;;;;;;;;;;;;;5101148;27;19916;-81
2022/12/22 10:56:43;;;;;;;;;;;;;;;;;;5092872;28;19916;-82
2022/12/22 10:59:29;;;;;;;;;;;;;;;;;;5101061;28;20288;-80
2022/12/22 11:02:16;;;;;;;;;;;;;;;;;;5096469;28;19926;-81
2022/12/22 11:05:02;;;;;;;;;;;;;;;;;;5102047;28;19932;-81
2022/12/22 11:07:49;;;;;;;;;;;;;;;;;;5099100;28;20367;-81
2022/12/22 11:10:35;;;;;;;;;;;;;;;;;;5096464;27;19918;-81
2022/12/22 11:13:22;;;;;;;;;;;;;;;;;;5093470;28;19997;-81
2022/12/22 11:16:08;;;;;;;;;;;;;;;;;;5095840;28;19939;-80
2022/12/22 11:18:55;;;;;;;;;;;;;;;;;;5104875;27;19938;-81
2022/12/22 11:21:43;;;;;;;;;;;;;;;;;;5077237;28;20216;-82
2022/12/22 11:24:29;;;;;;;;;;;;;;;;;;5096929;28;19927;-81
2022/12/22 11:27:16;;;;;;;;;;;;;;;;;;5088639;28;19912;-81
2022/12/22 11:30:02;;;;;;;;;;;;;;;;;;5093356;28;19935;-80
2022/12/22 11:32:49;;;;;;;;;;;;;;;;;;5095055;28;19936;-81
2022/12/22 11:35:35;;;;;;;;;;;;;;;;;;5096070;28;19927;-81
2022/12/22 11:38:22;;;;;;;;;;;;;;;;;;5097072;28;19918;-82
2022/12/22 11:41:09;;;;;;;;;;;;;;;;;;5092951;28;19918;-81
2022/12/22 11:43:55;;;;;;;;;;;;;;;;;;5093643;28;19920;-81
2022/12/22 11:46:44;;;;;;;;;;;;;;;;;;5101066;28;19912;-79
2022/12/22 11:49:31;;;;;;;;;;;;;;;;;;5104406;28;20286;-80
2022/12/22 11:52:17;;;;;;;;;;;;;;;;;;5119938;27;19941;-79
2022/12/22 11:55:04;;;;;;;;;;;;;;;;;;5118536;28;19911;-79
2022/12/22 11:57:50;;;;;;;;;;;;;;;;;;5116150;28;19923;-78
2022/12/22 12:00:37;;;;;;;;;;;;;;;;;;5115433;27;20289;-79
2022/12/22 12:03:23;;;;;;;;;;;;;;;;;;5118849;28;19923;-78
2022/12/22 12:06:10;;;;;;;;;;;;;;;;;;5118589;28;20280;-79
2022/12/22 12:08:56;;;;;;;;;;;;;;;;;;5111348;28;19912;-78
2022/12/22 12:11:43;;;;;;;;;;;;;;;;;;5121119;27;20290;-79
2022/12/22 12:14:29;;;;;;;;;;;;;;;;;;5112983;28;19922;-78
2022/12/22 12:17:16;;;;;;;;;;;;;;;;;;5122781;28;20036;-79
2022/12/22 12:20:02;;;;;;;;;;;;;;;;;;5112959;27;19934;-78
2022/12/22 12:22:49;;;;;;;;;;;;;;;;;;5107507;28;19920;-78
2022/12/22 12:25:35;;;;;;;;;;;;;;;;;;5120197;27;19919;-78
2022/12/22 12:28:22;;;;;;;;;;;;;;;;;;5120987;27;19914;-79
2022/12/22 12:31:08;;;;;;;;;;;;;;;;;;5115302;27;19907;-79
2022/12/22 12:33:59;;;;;;;;;;;;;;;;;;5116573;27;19912;-78
2022/12/22 12:36:45;;;;;;;;;;;;;;;;;;5120508;27;19911;-79
2022/12/22 12:39:32;;;;;;;;;;;;;;;;;;5119972;27;19927;-78
2022/12/22 12:42:18;;;;;;;;;;;;;;;;;;5128551;27;19922;-80
2022/12/22 12:45:05;;;;;;;;;;;;;;;;;;5118316;27;19911;-79
2022/12/22 12:47:51;;;;;;;;;;;;;;;;;;5131302;27;19915;-77
2022/12/22 12:50:38;;;;;;;;;;;;;;;;;;5132739;27;19911;-78
2022/12/22 12:53:24;;;;;;;;;;;;;;;;;;5113046;27;19946;-79
2022/12/22 12:56:11;;;;;;;;;;;;;;;;;;5112572;27;19915;-78
2022/12/22 12:58:57;;;;;;;;;;;;;;;;;;5114523;27;19912;-78
2022/12/22 13:01:44;;;;;;;;;;;;;;;;;;5126546;27;20290;-79
2022/12/22 13:04:30;;;;;;;;;;;;;;;;;;5117234;27;19916;-80
2022/12/22 13:07:17;;;;;;;;;;;;;;;;;;5127354;27;19918;-80
2022/12/22 13:10:03;;;;;;;;;;;;;;;;;;5128966;27;19918;-80
2022/12/22 13:12:50;;;;;;;;;;;;;;;;;;5115542;27;19926;-81
2022/12/22 13:15:36;;;;;;;;;;;;;;;;;;5103315;27;19916;-81
2022/12/22 13:18:23;;;;;;;;;;;;;;;;;;5111271;27;20377;-82
2022/12/22 13:21:09;;;;;;;;;;;;;;;;;;5110006;27;19934;-81
2022/12/22 13:23:56;;;;;;;;;;;;;;;;;;5114670;27;20390;-81
2022/12/22 13:26:42;;;;;;;;;;;;;;;;;;5125323;27;19926;-81
2022/12/22 13:29:29;;;;;;;;;;;;;;;;;;5121432;27;19911;-81
2022/12/22 13:32:15;;;;;;;;;;;;;;;;;;5108218;27;19912;-82
2022/12/22 13:35:02;;;;;;;;;;;;;;;;;;5094592;27;20004;-82
2022/12/22 13:37:49;;;;;;;;;;;;;;;;;;5125549;27;19911;-81
2022/12/22 13:40:35;;;;;;;;;;;;;;;;;;5128623;27;19922;-81
2022/12/22 13:43:22;;;;;;;;;;;;;;;;;;5112671;27;19930;-81
2022/12/22 13:46:08;;;;;;;;;;;;;;;;;;5096531;27;19911;-81
2022/12/22 13:48:55;;;;;;;;;;;;;;;;;;5112556;27;19911;-82
2022/12/22 13:51:41;;;;;;;;;;;;;;;;;;5107647;27;19934;-82
2022/12/22 13:54:28;;;;;;;;;;;;;;;;;;5102713;27;19908;-81
2022/12/22 13:57:14;;;;;;;;;;;;;;;;;;5123997;27;20310;-82
2022/12/22 14:00:00;;;;;;;;;;;;;;;;;;5123109;27;19916;-81
2022/12/22 14:02:47;;;;;;;;;;;;;;;;;;5119162;27;19942;-81
2022/12/22 14:05:33;;;;;;;;;;;;;;;;;;5119898;27;19914;-81
2022/12/22 14:08:20;;;;;;;;;;;;;;;;;;5121414;27;19919;-81
2022/12/22 14:11:06;;;;;;;;;;;;;;;;;;5120331;27;19918;-84
2022/12/22 14:13:53;;;;;;;;;;;;;;;;;;5121709;27;20267;-82
2022/12/22 14:16:40;;;;;;;;;;;;;;;;;;5125256;27;19920;-82
2022/12/22 14:19:26;;;;;;;;;;;;;;;;;;5118139;27;20278;-81
2022/12/22 14:22:13;;;;;;;;;;;;;;;;;;5119925;27;20442;-81
2022/12/22 14:24:59;;;;;;;;;;;;;;;;;;5121535;27;19984;-82
2022/12/22 14:27:46;;;;;;;;;;;;;;;;;;5128219;27;20628;-81
2022/12/22 14:30:32;;;;;;;;;;;;;;;;;;5114459;27;20230;-81
2022/12/22 14:33:19;;;;;;;;;;;;;;;;;;5120347;27;19915;-82
2022/12/22 14:36:05;;;;;;;;;;;;;;;;;;5126597;27;19919;-81
2022/12/22 14:38:52;;;;;;;;;;;;;;;;;;5116648;27;19918;-81
2022/12/22 14:41:42;;;;;;;;;;;;;;;;;;5125278;27;19922;-81
2022/12/22 14:44:28;;;;;;;;;;;;;;;;;;5115623;27;19908;-82
2022/12/22 14:47:16;;;;;;;;;;;;;;;;;;5108050;27;19916;-81
2022/12/22 14:50:03;;;;;;;;;;;;;;;;;;5117817;27;19934;-82
2022/12/22 14:52:49;;;;;;;;;;;;;;;;;;5120787;27;19922;-82
2022/12/22 14:55:36;;;;;;;;;;;;;;;;;;5120510;27;19911;-81
2022/12/22 14:58:22;;;;;;;;;;;;;;;;;;5113750;27;19908;-83
2022/12/22 15:01:09;;;;;;;;;;;;;;;;;;5115502;27;20404;-81
2022/12/22 15:03:55;;;;;;;;;;;;;;;;;;5124681;27;19920;-82
2022/12/22 15:06:42;;;;;;;;;;;;;;;;;;5125514;27;19915;-81
2022/12/22 15:09:30;;;;;;;;;;;;;;;;;;5100265;27;20345;-80
2022/12/22 15:12:19;;;;;;;;;;;;;;;;;;5111928;27;19915;-82
2022/12/22 15:15:07;;;;;;;;;;;;;;;;;;5123688;27;19913;-83
2022/12/22 15:18:06;;;;;;;;;;;;;;;;;;5120268;27;19908;-85
2022/12/22 15:20:52;;;;;;;;;;;;;;;;;;5123785;27;19927;-83
2022/12/22 15:23:38;;;;;;;;;;;;;;;;;;5123296;27;20259;-82
2022/12/22 15:26:25;;;;;;;;;;;;;;;;;;5119046;27;19911;-82
2022/12/22 15:29:11;;;;;;;;;;;;;;;;;;5130918;28;19915;-82
2022/12/22 15:31:58;;;;;;;;;;;;;;;;;;5135297;28;19922;-82
2022/12/22 15:34:44;;;;;;;;;;;;;;;;;;5115727;28;19914;-83
2022/12/22 15:37:31;;;;;;;;;;;;;;;;;;5117409;27;19938;-81
2022/12/22 15:40:17;;;;;;;;;;;;;;;;;;5118189;27;20611;-83
2022/12/22 15:43:07;;;;;;;;;;;;;;;;;;5109534;28;19919;-82
2022/12/22 15:45:53;;;;;;;;;;;;;;;;;;5121920;28;19919;-82
2022/12/22 15:48:40;;;;;;;;;;;;;;;;;;5116136;28;19915;-82
2022/12/22 15:51:26;;;;;;;;;;;;;;;;;;5120641;28;19907;-83
2022/12/22 15:54:13;;;;;;;;;;;;;;;;;;5116204;28;19922;-82
2022/12/22 15:57:00;;;;;;;;;;;;;;;;;;5124024;27;20359;-82
2022/12/22 15:59:46;;;;;;;;;;;;;;;;;;5123874;27;19912;-82
2022/12/22 16:02:33;;;;;;;;;;;;;;;;;;5111337;27;19923;-83
2022/12/22 16:05:19;;;;;;;;;;;;;;;;;;5127694;27;20260;-82
2022/12/22 16:08:06;;;;;;;;;;;;;;;;;;5119017;27;20511;-80
2022/12/22 16:10:52;;;;;;;;;;;;;;;;;;5123074;27;19918;-82
2022/12/22 16:13:39;;;;;;;;;;;;;;;;;;5125219;27;19915;-82
2022/12/22 16:16:25;;;;;;;;;;;;;;;;;;5116653;27;19918;-82
2022/12/22 16:19:12;;;;;;;;;;;;;;;;;;5114117;27;19912;-82
2022/12/22 16:21:58;;;;;;;;;;;;;;;;;;5120983;27;20310;-82
2022/12/22 16:24:45;;;;;;;;;;;;;;;;;;5128233;27;19911;-80
2022/12/22 16:27:31;;;;;;;;;;;;;;;;;;5123467;27;20329;-80
2022/12/22 16:30:20;;;;;;;;;;;;;;;;;;5113487;27;19915;-81
2022/12/22 16:33:06;;;;;;;;;;;;;;;;;;5107218;27;20286;-77
2022/12/22 16:35:53;;;;;;;;;;;;;;;;;;5121286;27;19923;-77
2022/12/22 16:38:40;;;;;;;;;;;;;;;;;;5124465;27;20302;-77
2022/12/22 16:41:26;;;;;;;;;;;;;;;;;;5115157;27;19919;-77
2022/12/22 16:44:13;;;;;;;;;;;;;;;;;;5113918;27;19996;-76
2022/12/22 16:46:59;;;;;;;;;;;;;;;;;;5120447;27;19926;-77
2022/12/22 16:49:46;;;;;;;;;;;;;;;;;;5120710;27;19912;-77
2022/12/22 16:52:32;;;;;;;;;;;;;;;;;;5108481;27;19916;-78
2022/12/22 16:55:19;;;;;;;;;;;;;;;;;;5130044;27;19926;-78
2022/12/22 16:58:06;;;;;;;;;;;;;;;;;;5133598;27;19911;-78
2022/12/22 17:00:52;;;;;;;;;;;;;;;;;;5128276;27;19934;-78
2022/12/22 17:03:41;;;;;;;;;;;;;;;;;;5122784;27;19923;-78
2022/12/22 17:06:27;;;;;;;;;;;;;;;;;;5126158;27;19920;-78
2022/12/22 17:09:14;;;;;;;;;;;;;;;;;;5121501;27;20527;-78
2022/12/22 17:12:01;;;;;;;;;;;;;;;;;;5121863;27;19915;-79
2022/12/22 17:14:47;;;;;;;;;;;;;;;;;;5113406;27;19912;-78
2022/12/22 17:17:34;;;;;;;;;;;;;;;;;;5117187;27;19918;-77
2022/12/22 17:20:20;;;;;;;;;;;;;;;;;;5121198;27;19924;-76
2022/12/22 17:23:07;;;;;;;;;;;;;;;;;;5121768;27;19915;-76
2022/12/22 17:25:53;;;;;;;;;;;;;;;;;;5121803;27;19942;-77
2022/12/22 17:28:40;;;;;;;;;;;;;;;;;;5118384;27;20298;-77
2022/12/22 17:31:27;;;;;;;;;;;;;;;;;;5117800;27;19918;-77
2022/12/22 17:34:13;;;;;;;;;;;;;;;;;;5117038;27;19922;-76
2022/12/22 17:37:00;;;;;;;;;;;;;;;;;;5122913;27;19911;-77
2022/12/22 17:39:46;;;;;;;;;;;;;;;;;;5125605;27;19918;-77
2022/12/22 17:42:33;;;;;;;;;;;;;;;;;;5120133;27;19920;-77
2022/12/22 17:45:19;;;;;;;;;;;;;;;;;;5110788;27;20652;-76
2022/12/22 17:48:06;;;;;;;;;;;;;;;;;;5130753;27;19918;-76
2022/12/22 17:50:52;;;;;;;;;;;;;;;;;;5123635;27;19908;-77
2022/12/22 17:53:39;;;;;;;;;;;;;;;;;;5105872;27;21226;-78
2022/12/22 17:56:25;;;;;;;;;;;;;;;;;;5096247;27;19916;-78
2022/12/22 17:59:12;;;;;;;;;;;;;;;;;;5120823;27;19919;-76
2022/12/22 18:01:59;;;;;;;;;;;;;;;;;;5103807;27;19922;-76
2022/12/22 18:04:45;;;;;;;;;;;;;;;;;;5114583;27;20385;-77
2022/12/22 18:07:32;;;;;;;;;;;;;;;;;;5128692;27;20306;-77
2022/12/22 18:10:18;;;;;;;;;;;;;;;;;;5117891;27;19915;-77
2022/12/22 18:13:05;;;;;;;;;;;;;;;;;;5118920;27;19922;-77
2022/12/22 18:15:52;;;;;;;;;;;;;;;;;;5118597;27;19919;-77
2022/12/22 18:18:38;;;;;;;;;;;;;;;;;;5100287;27;19915;-79
2022/12/22 18:21:25;;;;;;;;;;;;;;;;;;5115736;27;20398;-79
2022/12/22 18:24:11;;;;;;;;;;;;;;;;;;5104575;27;20405;-77
2022/12/22 18:26:59;;;;;;;;;;;;;;;;;;5115570;27;19915;-76
2022/12/22 18:29:48;;;;;;;;;;;;;;;;;;5118492;27;19915;-79
2022/12/22 18:32:36;;;;;;;;;;;;;;;;;;5118509;27;19915;-77
2022/12/22 18:35:26;;;;;;;;;;;;;;;;;;5121132;27;19922;-79
2022/12/22 18:38:12;;;;;;;;;;;;;;;;;;5115129;27;20356;-80
2022/12/22 18:40:59;;;;;;;;;;;;;;;;;;5102875;28;19919;-82
2022/12/22 18:43:45;;;;;;;;;;;;;;;;;;5121806;27;19930;-77
2022/12/22 18:46:32;;;;;;;;;;;;;;;;;;5121594;27;20394;-78
2022/12/22 18:49:18;;;;;;;;;;;;;;;;;;5119303;27;19922;-84
2022/12/22 18:52:05;;;;;;;;;;;;;;;;;;5121277;27;20467;-81
2022/12/22 18:54:51;;;;;;;;;;;;;;;;;;5120498;27;19919;-83
2022/12/22 18:57:41;;;;;;;;;;;;;;;;;;5121530;27;20353;-82
2022/12/22 19:00:28;;;;;;;;;;;;;;;;;;5109748;27;20294;-82
2022/12/22 19:03:14;;;;;;;;;;;;;;;;;;5111049;27;19926;-83
2022/12/22 19:06:01;;;;;;;;;;;;;;;;;;5112682;27;20342;-80
2022/12/22 19:08:47;;;;;;;;;;;;;;;;;;5121128;27;19911;-77
2022/12/22 19:11:34;;;;;;;;;;;;;;;;;;5124723;27;19926;-82
2022/12/22 19:14:20;;;;;;;;;;;;;;;;;;5102050;27;19915;-80
2022/12/22 19:17:07;;;;;;;;;;;;;;;;;;5118680;27;19930;-81
2022/12/22 19:19:53;;;;;;;;;;;;;;;;;;5113129;27;19920;-82
2022/12/22 19:22:40;;;;;;;;;;;;;;;;;;5121147;27;19931;-79
2022/12/22 19:25:26;;;;;;;;;;;;;;;;;;5114627;27;19923;-78
2022/12/22 19:28:13;;;;;;;;;;;;;;;;;;5114244;27;19944;-79
2022/12/22 19:30:59;;;;;;;;;;;;;;;;;;5113895;28;20283;-82
2022/12/22 19:33:46;;;;;;;;;;;;;;;;;;5104157;27;19922;-82
2022/12/22 19:36:33;;;;;;;;;;;;;;;;;;5120141;28;19916;-81
2022/12/22 19:39:19;;;;;;;;;;;;;;;;;;5113707;28;19918;-79
2022/12/22 19:42:06;;;;;;;;;;;;;;;;;;5120038;27;19912;-79
2022/12/22 19:44:52;;;;;;;;;;;;;;;;;;5122913;28;19950;-83
2022/12/22 19:47:39;;;;;;;;;;;;;;;;;;5124602;27;19915;-78
2022/12/22 19:50:25;;;;;;;;;;;;;;;;;;5114276;27;19923;-78
2022/12/22 19:53:12;;;;;;;;;;;;;;;;;;5123510;28;19915;-80
2022/12/22 19:55:58;;;;;;;;;;;;;;;;;;5124655;28;19930;-79
2022/12/22 19:58:45;;;;;;;;;;;;;;;;;;5122739;28;19912;-78
2022/12/22 20:01:31;;;;;;;;;;;;;;;;;;5109229;28;19912;-79
2022/12/22 20:04:18;;;;;;;;;;;;;;;;;;5122166;28;19920;-79
2022/12/22 20:07:04;;;;;;;;;;;;;;;;;;5115010;28;19934;-81
2022/12/22 20:09:51;;;;;;;;;;;;;;;;;;5111245;28;19920;-78
2022/12/22 20:12:38;;;;;;;;;;;;;;;;;;5120086;27;19918;-82
2022/12/22 20:15:24;;;;;;;;;;;;;;;;;;5119801;28;20302;-80
2022/12/22 20:18:11;;;;;;;;;;;;;;;;;;5115620;27;19915;-78
2022/12/22 20:20:57;;;;;;;;;;;;;;;;;;5118761;28;19924;-81
2022/12/22 20:23:45;;;;;;;;;;;;;;;;;;5116665;27;20299;-82
2022/12/22 20:26:32;;;;;;;;;;;;;;;;;;5121167;28;20544;-82
2022/12/22 20:29:18;;;;;;;;;;;;;;;;;;5122601;28;19914;-82
2022/12/22 20:32:04;;;;;;;;;;;;;;;;;;5118312;28;19918;-81
2022/12/22 20:34:51;;;;;;;;;;;;;;;;;;5118100;28;20423;-81
2022/12/22 20:37:37;;;;;;;;;;;;;;;;;;5115161;28;19911;-78
2022/12/22 20:40:27;;;;;;;;;;;;;;;;;;5114861;28;19935;-79
2022/12/22 20:43:26;;;;;;;;;;;;;;;;;;;;;
2022/12/22 20:46:15;;;;;;;;;;;;;;;;;;5125476;27;20295;-81
2022/12/22 20:49:02;;;;;;;;;;;;;;;;;;5114557;27;19923;-82
2022/12/22 20:51:48;;;;;;;;;;;;;;;;;;5107613;27;19912;-82
2022/12/22 20:54:35;;;;;;;;;;;;;;;;;;5122814;27;19935;-81
2022/12/22 20:57:22;;;;;;;;;;;;;;;;;;5120847;27;20371;-84
2022/12/22 21:00:08;;;;;;;;;;;;;;;;;;5119749;27;19915;-82
2022/12/22 21:02:55;;;;;;;;;;;;;;;;;;5123151;27;19938;-81
2022/12/22 21:05:41;;;;;;;;;;;;;;;;;;5123563;27;20279;-74
2022/12/22 21:08:28;;;;;;;;;;;;;;;;;;5113310;27;19935;-77
2022/12/22 21:11:14;;;;;;;;;;;;;;;;;;5119875;27;19911;-75
2022/12/22 21:14:01;;;;;;;;;;;;;;;;;;5113552;27;19908;-77
2022/12/22 21:16:47;;;;;;;;;;;;;;;;;;5120709;27;19966;-77
2022/12/22 21:19:34;;;;;;;;;;;;;;;;;;5113629;27;19916;-75
2022/12/22 21:22:20;;;;;;;;;;;;;;;;;;5118906;27;19915;-76
2022/12/22 21:25:07;;;;;;;;;;;;;;;;;;5125957;27;20313;-76
2022/12/22 21:27:53;;;;;;;;;;;;;;;;;;5107385;27;19922;-78
2022/12/22 21:30:40;;;;;;;;;;;;;;;;;;5121040;27;19911;-75
2022/12/22 21:33:26;;;;;;;;;;;;;;;;;;5122718;27;19908;-76
2022/12/22 21:36:13;;;;;;;;;;;;;;;;;;5118856;27;19919;-76
2022/12/22 21:38:59;;;;;;;;;;;;;;;;;;5117861;27;19922;-76
2022/12/22 21:42:03;;;;;;;;;;;;;;;;;;5119662;27;19912;-76
2022/12/22 21:44:50;;;;;;;;;;;;;;;;;;5114807;27;19927;-77
2022/12/22 21:47:36;;;;;;;;;;;;;;;;;;5122583;27;19914;-76
2022/12/22 21:50:23;;;;;;;;;;;;;;;;;;5126115;27;19915;-77
2022/12/22 21:53:12;;;;;;;;;;;;;;;;;;5103531;28;19911;-77
2022/12/22 21:55:58;;;;;;;;;;;;;;;;;;5096722;27;20024;-75
2022/12/22 21:58:45;;;;;;;;;;;;;;;;;;5116975;27;20888;-77
2022/12/22 22:01:31;;;;;;;;;;;;;;;;;;5119149;27;19907;-76
2022/12/22 22:04:18;;;;;;;;;;;;;;;;;;5120619;27;19920;-77
2022/12/22 22:07:04;;;;;;;;;;;;;;;;;;5122111;27;19911;-75
2022/12/22 22:09:51;;;;;;;;;;;;;;;;;;5125680;27;19919;-77
2022/12/22 22:12:38;;;;;;;;;;;;;;;;;;5117059;27;19945;-74
2022/12/22 22:15:25;;;;;;;;;;;;;;;;;;5112405;27;20359;-77
2022/12/22 22:18:11;;;;;;;;;;;;;;;;;;5104523;27;19912;-77
2022/12/22 22:20:58;;;;;;;;;;;;;;;;;;5121745;27;19924;-76
2022/12/22 22:23:44;;;;;;;;;;;;;;;;;;5111728;27;19919;-76
2022/12/22 22:26:31;;;;;;;;;;;;;;;;;;5118465;27;19912;-77
2022/12/22 22:29:17;;;;;;;;;;;;;;;;;;5123395;27;19918;-76
2022/12/22 22:32:04;;;;;;;;;;;;;;;;;;5119523;27;19933;-75
2022/12/22 22:34:50;;;;;;;;;;;;;;;;;;5124554;27;19922;-74
2022/12/22 22:37:38;;;;;;;;;;;;;;;;;;5125042;27;19908;-76